Time;durP1;ratioP1;P1;durP2;ratioP2;P2;SDS_P1;SDS_P2;PMS_P1;PMS_P2;Temp;Humidity;BMP_temperature;BMP_pressure;BME280_temperature;BME280_humidity;BME280_pressure;Samples;Min_cycle;Max_cycle;Signal;HPM_P1;HPM_P2
2022/08/28 00:00:09;;;;;;;6.45;4.90;;;18.20;99.90;;;;;;5106549;28;20211;-89
2022/08/28 00:02:36;;;;;;;5.15;3.53;;;18.10;99.90;;;;;;5101040;28;20219;-89
2022/08/28 00:05:11;;;;;;;4.28;2.22;;;18.00;99.90;;;;;;5103671;28;20223;-89
2022/08/28 00:07:37;;;;;;;4.82;4.00;;;17.90;99.90;;;;;;5103939;28;20203;-89
2022/08/28 00:10:06;;;;;;;3.63;3.33;;;17.90;99.90;;;;;;5102180;28;20566;-89
2022/08/28 00:12:35;;;;;;;2.35;2.03;;;18.00;99.90;;;;;;5100392;28;20200;-89
2022/08/28 00:15:06;;;;;;;2.67;2.42;;;18.00;99.90;;;;;;5109047;28;20211;-89
2022/08/28 00:17:33;;;;;;;2.63;2.42;;;18.00;99.90;;;;;;5096278;28;20212;-89
2022/08/28 00:20:00;;;;;;;2.50;2.30;;;17.90;99.90;;;;;;5107664;28;20207;-89
2022/08/28 00:22:27;;;;;;;5.03;3.60;;;17.80;99.90;;;;;;5098089;28;20199;-88
2022/08/28 00:24:54;;;;;;;4.15;2.00;;;17.80;99.90;;;;;;5114798;28;20204;-88
2022/08/28 00:30:07;;;;;;;3.25;2.30;;;17.60;99.90;;;;;;5109874;28;20222;-89
2022/08/28 00:32:34;;;;;;;2.60;2.38;;;17.50;99.90;;;;;;5108394;28;20199;-89
2022/08/28 00:35:03;;;;;;;2.67;2.22;;;17.50;99.90;;;;;;5111773;28;20208;-89
2022/08/28 00:37:30;;;;;;;2.65;2.00;;;17.40;99.90;;;;;;5111800;28;20574;-89
2022/08/28 00:39:57;;;;;;;2.00;1.85;;;17.40;99.90;;;;;;5111546;28;20594;-89
2022/08/28 00:42:27;;;;;;;2.42;2.22;;;17.30;99.90;;;;;;5101058;28;20207;-89
2022/08/28 00:44:54;;;;;;;3.80;3.03;;;17.30;99.90;;;;;;5096436;28;20224;-89
2022/08/28 00:47:25;;;;;;;2.90;2.65;;;17.50;99.90;;;;;;5108330;28;20207;-89
2022/08/28 00:49:55;;;;;;;2.95;2.70;;;17.50;99.90;;;;;;5107841;28;20248;-89
2022/08/28 00:52:22;;;;;;;2.78;2.28;;;17.60;99.90;;;;;;5103361;28;20208;-89
2022/08/28 00:54:53;;;;;;;2.97;2.67;;;17.70;99.90;;;;;;5106918;28;20565;-89
2022/08/28 00:57:25;;;;;;;2.67;2.00;;;17.70;99.90;;;;;;5104579;28;20204;-89
2022/08/28 00:59:52;;;;;;;2.22;2.03;;;17.80;99.90;;;;;;5103033;28;20203;-89
2022/08/28 01:02:20;;;;;;;2.42;2.22;;;17.70;99.90;;;;;;5114167;28;20221;-89
2022/08/28 01:04:48;;;;;;;2.38;2.17;;;17.70;99.90;;;;;;5113676;28;20585;-89
2022/08/28 01:07:16;;;;;;;2.55;2.35;;;17.80;99.90;;;;;;5112319;28;20215;-89
2022/08/28 01:09:47;;;;;;;2.40;2.20;;;17.90;99.90;;;;;;5113540;28;20203;-89
2022/08/28 01:12:17;;;;;;;2.92;2.20;;;17.90;99.90;;;;;;5113292;28;20257;-89
2022/08/28 01:14:46;;;;;;;2.72;2.20;;;17.80;99.90;;;;;;5111476;28;20208;-89
2022/08/28 01:17:15;;;;;;;2.78;2.58;;;17.70;99.90;;;;;;5112998;28;20740;-89
2022/08/28 01:19:45;;;;;;;2.35;2.15;;;17.90;99.90;;;;;;5113406;28;20212;-89
2022/08/28 01:22:26;;;;;;;3.13;2.63;;;17.80;99.90;;;;;;5112229;28;20196;-89
2022/08/28 01:24:57;;;;;;;2.90;2.28;;;17.80;99.90;;;;;;5104471;28;20254;-89
2022/08/28 01:27:24;;;;;;;2.72;2.53;;;17.70;99.90;;;;;;5102172;28;20589;-89
2022/08/28 01:29:51;;;;;;;4.15;2.45;;;17.70;99.90;;;;;;5102507;28;20205;-89
2022/08/28 01:32:35;;;;;;;3.05;2.63;;;17.80;99.90;;;;;;5104749;28;20222;-89
2022/08/28 01:35:02;;;;;;;2.58;2.13;;;18.00;99.90;;;;;;5110375;28;20200;-89
2022/08/28 01:37:30;;;;;;;3.05;2.33;;;18.10;99.90;;;;;;5110742;28;20537;-89
2022/08/28 01:40:00;;;;;;;3.63;2.47;;;18.20;99.90;;;;;;5107650;28;20223;-89
2022/08/28 01:42:26;;;;;;;2.67;2.35;;;18.20;99.90;;;;;;5107210;28;20245;-89
2022/08/28 01:44:53;;;;;;;2.70;2.42;;;18.20;99.90;;;;;;5112320;28;20224;-89
2022/08/28 01:47:21;;;;;;;2.92;2.70;;;18.00;99.90;;;;;;5107129;27;20227;-89
2022/08/28 01:49:48;;;;;;;4.03;2.42;;;18.00;99.90;;;;;;5110703;28;20231;-89
2022/08/28 01:52:15;;;;;;;2.97;2.40;;;18.00;99.90;;;;;;5102295;28;20652;-89
2022/08/28 01:54:42;;;;;;;2.80;2.60;;;18.20;99.90;;;;;;5109761;28;20215;-89
2022/08/28 01:57:10;;;;;;;2.53;2.33;;;18.30;99.90;;;;;;5107905;28;20257;-89
2022/08/28 01:59:37;;;;;;;2.33;2.13;;;18.30;99.90;;;;;;5105845;27;20222;-89
2022/08/28 02:02:04;;;;;;;3.20;2.55;;;18.20;99.90;;;;;;5101048;28;20678;-89
2022/08/28 02:04:31;;;;;;;2.92;2.63;;;18.10;99.90;;;;;;5108391;28;20196;-89
2022/08/28 02:06:58;;;;;;;2.88;2.50;;;17.90;99.90;;;;;;5111425;28;20310;-89
2022/08/28 02:09:25;;;;;;;2.70;2.50;;;18.10;99.90;;;;;;5111457;28;20214;-89
2022/08/28 02:11:52;;;;;;;2.95;2.65;;;18.00;99.90;;;;;;5104346;28;20207;-89
2022/08/28 02:14:21;;;;;;;3.28;2.60;;;18.00;99.90;;;;;;5108046;28;20686;-89
2022/08/28 02:16:48;;;;;;;3.05;2.60;;;17.90;99.90;;;;;;5102070;28;20205;-88
2022/08/28 02:19:15;;;;;;;2.70;2.50;;;17.90;99.90;;;;;;5115082;28;20202;-88
2022/08/28 02:21:42;;;;;;;4.68;3.03;;;17.90;99.90;;;;;;5105500;28;20254;-89
2022/08/28 02:24:09;;;;;;;2.60;2.40;;;18.00;99.90;;;;;;5113337;28;20203;-89
2022/08/28 02:26:36;;;;;;;3.75;2.67;;;18.10;99.90;;;;;;5112256;28;20316;-89
2022/08/28 02:29:02;;;;;;;3.72;2.35;;;18.20;99.90;;;;;;5111754;28;20192;-89
2022/08/28 02:31:31;;;;;;;3.78;2.53;;;18.30;99.90;;;;;;5111194;28;20206;-89
2022/08/28 02:33:58;;;;;;;2.50;2.10;;;18.20;99.90;;;;;;5097884;28;20192;-89
2022/08/28 02:36:24;;;;;;;2.90;2.60;;;18.30;99.90;;;;;;5106492;28;20206;-89
2022/08/28 02:38:52;;;;;;;3.63;2.80;;;18.10;99.90;;;;;;5111337;28;20211;-89
2022/08/28 02:41:19;;;;;;;2.80;2.58;;;17.90;99.90;;;;;;5102974;28;20196;-89
2022/08/28 02:43:46;;;;;;;3.20;2.90;;;17.80;99.90;;;;;;5108251;28;20342;-89
2022/08/28 02:46:13;;;;;;;4.05;2.60;;;17.80;99.90;;;;;;5112241;28;20597;-89
2022/08/28 02:48:41;;;;;;;4.55;2.90;;;17.80;99.90;;;;;;5109326;28;20678;-89
2022/08/28 02:51:11;;;;;;;3.78;2.72;;;17.80;99.90;;;;;;5107712;28;20237;-89
2022/08/28 02:53:39;;;;;;;2.70;2.50;;;17.90;99.90;;;;;;5107568;28;20222;-89
2022/08/28 02:56:06;;;;;;;3.58;2.85;;;17.90;99.90;;;;;;5101978;28;20204;-89
2022/08/28 02:58:34;;;;;;;5.55;2.78;;;17.90;99.90;;;;;;5109289;28;20210;-89
2022/08/28 03:01:02;;;;;;;2.88;2.67;;;17.70;99.90;;;;;;5105238;28;20325;-89
2022/08/28 03:03:31;;;;;;;4.10;2.88;;;17.70;99.90;;;;;;5111901;28;20204;-89
2022/08/28 03:06:00;;;;;;;2.83;2.58;;;17.60;99.90;;;;;;5106974;28;20216;-89
2022/08/28 03:08:27;;;;;;;4.70;2.80;;;17.60;99.90;;;;;;5102820;28;20204;-89
2022/08/28 03:10:55;;;;;;;3.50;3.20;;;17.60;99.90;;;;;;5109154;28;20566;-89
2022/08/28 03:13:22;;;;;;;3.20;2.90;;;17.70;99.90;;;;;;5100607;28;20208;-89
2022/08/28 03:15:49;;;;;;;5.50;3.58;;;17.70;99.90;;;;;;5107841;28;20204;-89
2022/08/28 03:18:17;;;;;;;3.20;2.95;;;17.90;99.90;;;;;;5112284;28;20543;-89
2022/08/28 03:20:45;;;;;;;3.22;2.90;;;18.00;99.90;;;;;;5103691;28;20204;-89
2022/08/28 03:23:26;;;;;;;3.50;3.20;;;18.00;99.90;;;;;;5106616;28;20557;-89
2022/08/28 03:25:53;;;;;;;5.15;3.15;;;17.90;99.90;;;;;;5111254;28;20199;-89
2022/08/28 03:28:19;;;;;;;5.65;3.15;;;17.90;99.90;;;;;;5102100;28;20569;-89
2022/08/28 03:30:47;;;;;;;3.05;2.75;;;18.00;99.90;;;;;;5097946;28;20199;-89
2022/08/28 03:33:14;;;;;;;4.13;3.00;;;18.00;99.90;;;;;;5104371;28;20197;-89
2022/08/28 03:35:41;;;;;;;4.32;2.80;;;18.10;99.90;;;;;;5106884;28;20265;-90
2022/08/28 03:38:10;;;;;;;3.25;2.95;;;18.10;99.90;;;;;;5106591;28;20220;-89
2022/08/28 03:40:41;;;;;;;4.03;3.08;;;18.10;99.90;;;;;;5104003;28;20295;-89
2022/08/28 03:43:10;;;;;;;3.70;3.38;;;18.10;99.90;;;;;;5099592;28;20218;-89
2022/08/28 03:45:37;;;;;;;6.20;3.20;;;18.00;99.90;;;;;;5105029;28;20203;-89
2022/08/28 03:48:06;;;;;;;2.95;2.70;;;18.00;99.90;;;;;;5107948;28;20216;-89
2022/08/28 03:50:33;;;;;;;4.00;3.60;;;18.00;99.90;;;;;;5101131;28;20272;-89
2022/08/28 03:53:00;;;;;;;3.65;3.25;;;18.10;99.90;;;;;;5107107;28;20583;-89
2022/08/28 03:55:27;;;;;;;4.07;3.00;;;18.20;99.90;;;;;;5106376;28;20215;-89
2022/08/28 03:57:56;;;;;;;3.30;3.00;;;18.20;99.90;;;;;;5108417;28;20219;-89
2022/08/28 04:00:22;;;;;;;3.40;3.10;;;18.20;99.90;;;;;;5108127;28;20211;-89
2022/08/28 04:02:50;;;;;;;5.03;3.25;;;18.30;99.90;;;;;;5107246;28;20211;-89
2022/08/28 04:05:17;;;;;;;3.67;3.20;;;18.40;99.90;;;;;;5108261;28;20203;-89
2022/08/28 04:07:43;;;;;;;3.78;3.30;;;18.50;99.90;;;;;;5108684;28;20223;-89
2022/08/28 04:10:11;;;;;;;3.70;3.35;;;18.40;99.90;;;;;;5109694;28;20219;-89
2022/08/28 04:12:38;;;;;;;3.78;3.47;;;18.30;99.90;;;;;;5114288;28;20203;-88
2022/08/28 04:15:08;;;;;;;3.80;3.50;;;18.30;99.90;;;;;;5117030;28;20203;-88
2022/08/28 04:17:38;;;;;;;3.55;3.25;;;18.20;99.90;;;;;;5106582;28;20211;-89
2022/08/28 04:20:07;;;;;;;3.63;3.30;;;18.30;99.90;;;;;;5100946;28;20272;-89
2022/08/28 04:22:34;;;;;;;4.70;3.78;;;18.40;99.90;;;;;;5107556;28;20200;-89
2022/08/28 04:25:01;;;;;;;4.50;4.10;;;18.20;99.90;;;;;;5111518;28;20191;-89
2022/08/28 04:27:27;;;;;;;7.20;3.70;;;18.20;99.90;;;;;;5113999;28;20215;-88
2022/08/28 04:29:54;;;;;;;4.10;3.70;;;18.10;99.90;;;;;;5113970;28;20210;-88
2022/08/28 04:32:22;;;;;;;4.10;3.70;;;18.20;99.90;;;;;;5108518;28;20200;-88
2022/08/28 04:34:49;;;;;;;3.75;3.45;;;18.20;99.90;;;;;;5095123;28;20207;-88
2022/08/28 04:37:17;;;;;;;3.90;3.60;;;18.30;99.90;;;;;;5112552;28;20203;-88
2022/08/28 04:39:44;;;;;;;4.65;3.40;;;18.30;99.90;;;;;;5115105;28;20730;-88
2022/08/28 04:42:11;;;;;;;4.15;3.75;;;18.40;99.90;;;;;;5109570;28;20215;-88
2022/08/28 04:44:39;;;;;;;4.28;3.88;;;18.40;99.90;;;;;;5111347;28;20228;-89
2022/08/28 04:47:06;;;;;;;4.32;3.90;;;18.40;99.90;;;;;;5113563;28;20211;-89
2022/08/28 04:49:35;;;;;;;3.88;3.55;;;18.40;99.90;;;;;;5115300;28;20286;-89
2022/08/28 04:52:02;;;;;;;6.18;3.90;;;18.50;99.90;;;;;;5113953;28;20195;-89
2022/08/28 04:54:29;;;;;;;4.65;3.85;;;18.50;99.90;;;;;;5113419;28;20192;-89
2022/08/28 04:56:56;;;;;;;4.10;3.70;;;18.50;99.90;;;;;;5113841;28;20200;-89
2022/08/28 04:59:22;;;;;;;4.30;3.90;;;18.50;99.90;;;;;;5109684;28;20542;-89
2022/08/28 05:01:50;;;;;;;4.30;3.90;;;18.40;99.90;;;;;;5108234;28;20537;-89
2022/08/28 05:04:18;;;;;;;5.60;3.90;;;18.40;99.90;;;;;;5113680;28;20218;-89
2022/08/28 05:06:47;;;;;;;4.25;3.85;;;18.30;99.90;;;;;;5111772;28;20686;-89
2022/08/28 05:09:16;;;;;;;5.38;4.40;;;18.20;99.90;;;;;;5113977;28;20593;-89
2022/08/28 05:11:45;;;;;;;4.80;4.38;;;18.10;99.90;;;;;;5105492;28;20203;-89
2022/08/28 05:14:13;;;;;;;6.10;4.30;;;18.20;99.90;;;;;;5105630;28;20294;-89
2022/08/28 05:16:42;;;;;;;5.47;4.97;;;18.20;99.90;;;;;;5096594;28;20196;-89
2022/08/28 05:19:10;;;;;;;5.50;5.00;;;18.20;99.90;;;;;;5113004;28;20200;-89
2022/08/28 05:21:37;;;;;;;5.47;4.97;;;18.10;99.90;;;;;;5099980;28;20200;-89
2022/08/28 05:24:06;;;;;;;6.20;5.10;;;18.10;99.90;;;;;;5112670;27;20228;-89
2022/08/28 05:26:33;;;;;;;5.78;5.22;;;18.10;99.90;;;;;;5109135;28;20772;-89
2022/08/28 05:29:00;;;;;;;6.57;5.97;;;18.20;99.90;;;;;;5101207;28;20203;-89
2022/08/28 05:31:30;;;;;;;8.13;6.40;;;18.20;99.90;;;;;;5110332;28;20678;-89
2022/08/28 05:33:58;;;;;;;6.93;6.22;;;18.10;99.90;;;;;;5099187;28;20249;-89
2022/08/28 05:36:26;;;;;;;6.40;5.80;;;18.10;99.90;;;;;;5107739;28;20203;-89
2022/08/28 05:38:56;;;;;;;6.50;5.80;;;18.20;99.90;;;;;;5104867;28;20579;-89
2022/08/28 05:41:29;;;;;;;6.38;5.78;;;18.30;99.90;;;;;;5108159;28;20187;-86
2022/08/28 05:43:57;;;;;;;7.55;5.78;;;18.30;99.90;;;;;;5108270;28;20215;-86
2022/08/28 05:46:27;;;;;;;7.18;6.47;;;18.30;99.90;;;;;;5110450;28;20242;-86
2022/08/28 05:48:54;;;;;;;7.30;6.00;;;18.30;99.90;;;;;;5106891;28;20712;-89
2022/08/28 05:51:23;;;;;;;6.93;6.22;;;18.20;99.90;;;;;;5104545;28;20733;-86
2022/08/28 05:53:50;;;;;;;6.00;5.38;;;18.20;99.90;;;;;;5114606;28;20200;-86
2022/08/28 05:56:20;;;;;;;6.45;5.80;;;18.10;99.90;;;;;;5105303;28;20196;-86
2022/08/28 05:58:48;;;;;;;7.00;5.93;;;18.10;99.90;;;;;;5106524;28;20270;-86
2022/08/28 06:01:17;;;;;;;5.60;5.10;;;18.20;99.90;;;;;;5110924;28;20210;-86
2022/08/28 06:03:46;;;;;;;5.15;4.68;;;18.20;99.90;;;;;;5106104;27;20210;-86
2022/08/28 06:06:13;;;;;;;4.68;4.28;;;18.30;99.90;;;;;;5117931;28;20210;-85
2022/08/28 06:08:40;;;;;;;4.80;4.40;;;18.50;99.90;;;;;;5118336;28;20609;-86
2022/08/28 06:11:09;;;;;;;4.82;4.43;;;18.70;99.90;;;;;;5106120;28;20203;-86
2022/08/28 06:13:36;;;;;;;5.65;4.43;;;18.70;99.90;;;;;;5109840;28;20579;-86
2022/08/28 06:16:05;;;;;;;5.40;4.55;;;18.70;99.90;;;;;;5096296;28;20644;-86
2022/08/28 06:18:35;;;;;;;5.57;4.38;;;18.70;99.90;;;;;;5102344;28;20199;-86
2022/08/28 06:21:03;;;;;;;4.68;4.28;;;18.80;99.90;;;;;;5110859;28;20207;-85
2022/08/28 06:23:30;;;;;;;5.97;4.47;;;18.80;99.90;;;;;;5114475;28;20216;-86
2022/08/28 06:25:57;;;;;;;5.90;5.38;;;18.80;99.90;;;;;;5109461;28;20195;-86
2022/08/28 06:28:27;;;;;;;5.68;5.18;;;18.80;99.90;;;;;;5114468;28;20234;-86
2022/08/28 06:30:57;;;;;;;5.63;4.82;;;18.70;99.90;;;;;;5108813;28;20208;-86
2022/08/28 06:33:29;;;;;;;5.20;4.70;;;18.70;99.90;;;;;;5107948;28;20196;-86
2022/08/28 06:35:57;;;;;;;8.07;6.80;;;18.80;99.90;;;;;;5106105;28;20207;-86
2022/08/28 06:38:26;;;;;;;8.20;6.63;;;18.80;99.90;;;;;;5115607;28;20203;-86
2022/08/28 06:40:55;;;;;;;9.18;7.40;;;18.80;99.90;;;;;;5100847;28;20236;-86
2022/08/28 06:43:29;;;;;;;12.07;10.05;;;18.90;99.90;;;;;;5098545;28;20208;-86
2022/08/28 06:45:57;;;;;;;12.35;10.38;;;19.00;99.90;;;;;;5115435;28;20207;-86
2022/08/28 06:48:30;;;;;;;14.88;11.55;;;19.10;99.90;;;;;;5110302;28;20574;-87
2022/08/28 06:50:58;;;;;;;12.20;10.27;;;18.90;99.90;;;;;;5111730;28;20192;-89
2022/08/28 06:53:27;;;;;;;13.77;11.50;;;18.90;99.90;;;;;;5108174;28;20207;-86
2022/08/28 06:56:00;;;;;;;14.88;12.40;;;18.90;99.90;;;;;;5112576;28;20203;-87
2022/08/28 06:58:31;;;;;;;16.35;13.05;;;18.90;99.90;;;;;;5110045;28;20275;-87
2022/08/28 07:01:06;;;;;;;18.08;11.95;;;19.00;99.90;;;;;;5106973;28;20200;-87
2022/08/28 07:03:35;;;;;;;12.32;10.68;;;19.10;99.90;;;;;;5111737;28;20196;-88
2022/08/28 07:06:03;;;;;;;14.13;11.30;;;19.30;99.90;;;;;;5114048;28;20192;-87
2022/08/28 07:08:32;;;;;;;14.35;12.85;;;19.40;99.90;;;;;;5118029;28;20222;-87
2022/08/28 07:11:20;;;;;;;19.10;14.80;;;19.30;99.90;;;;;;5105172;28;20195;-86
2022/08/28 07:13:48;;;;;;;16.95;14.52;;;19.20;99.90;;;;;;5106588;28;20200;-87
2022/08/28 07:16:23;;;;;;;15.77;14.13;;;19.10;99.90;;;;;;5111468;28;20204;-87
2022/08/28 07:18:51;;;;;;;18.50;14.65;;;19.00;99.90;;;;;;5113983;28;20199;-87
2022/08/28 07:21:19;;;;;;;18.30;15.07;;;19.00;99.90;;;;;;5110115;28;20195;-88
2022/08/28 07:23:47;;;;;;;18.42;15.20;;;18.90;99.90;;;;;;5114579;28;20204;-88
2022/08/28 07:26:15;;;;;;;19.55;15.95;;;18.90;99.90;;;;;;5106185;28;20212;-87
2022/08/28 07:28:42;;;;;;;21.23;15.77;;;18.80;99.90;;;;;;5108478;28;20226;-87
2022/08/28 07:31:12;;;;;;;16.98;15.18;;;18.70;99.90;;;;;;5113419;28;20193;-87
2022/08/28 07:33:40;;;;;;;18.38;15.95;;;18.60;99.90;;;;;;5106930;28;20192;-87
2022/08/28 07:36:10;;;;;;;19.67;15.55;;;18.80;99.90;;;;;;5108307;28;20195;-87
2022/08/28 07:38:37;;;;;;;22.67;15.80;;;19.00;99.90;;;;;;5110851;28;20650;-87
2022/08/28 07:41:15;;;;;;;18.52;15.48;;;19.10;99.90;;;;;;5117902;28;20199;-88
2022/08/28 07:46:31;;;;;;;19.63;15.80;;;19.20;99.90;;;;;;5104590;28;20199;-87
2022/08/28 07:49:04;;;;;;;19.75;15.98;;;19.20;99.90;;;;;;5101935;28;20213;-87
2022/08/28 07:51:32;;;;;;;17.23;15.10;;;19.20;99.90;;;;;;5110958;28;20211;-87
2022/08/28 07:54:04;;;;;;;20.63;15.82;;;19.10;99.90;;;;;;5109730;28;20669;-87
2022/08/28 07:56:31;;;;;;;20.63;16.67;;;19.10;99.90;;;;;;5104974;28;20196;-87
2022/08/28 07:58:59;;;;;;;20.63;16.20;;;19.10;99.90;;;;;;5102813;28;20599;-87
2022/08/28 08:01:44;;;;;;;19.20;16.38;;;19.10;99.90;;;;;;5112643;28;20204;-87
2022/08/28 08:04:29;;;;;;;19.27;16.55;;;19.10;99.90;;;;;;5113941;28;20573;-88
2022/08/28 08:07:13;;;;;;;18.90;16.77;;;19.00;99.90;;;;;;5102906;28;20200;-88
2022/08/28 08:09:46;;;;;;;21.58;16.83;;;18.90;99.90;;;;;;5100669;28;20216;-87
2022/08/28 08:12:27;;;;;;;20.20;16.30;;;18.80;99.90;;;;;;5111292;28;20196;-87
2022/08/28 08:15:01;;;;;;;19.70;16.00;;;18.70;99.90;;;;;;5104037;28;20641;-86
2022/08/28 08:17:30;;;;;;;18.75;15.68;;;18.60;99.90;;;;;;5104223;28;20196;-89
2022/08/28 08:19:56;;;;;;;16.27;14.38;;;18.70;99.90;;;;;;5104627;28;20302;-86
2022/08/28 08:22:39;;;;;;;15.13;13.52;;;18.70;99.90;;;;;;5103408;28;20192;-88
2022/08/28 08:25:08;;;;;;;15.20;13.60;;;18.70;99.90;;;;;;5098458;28;20201;-88
2022/08/28 08:27:40;;;;;;;15.70;13.98;;;18.60;99.90;;;;;;5103927;28;20589;-88
2022/08/28 08:30:09;;;;;;;16.63;13.93;;;18.50;99.90;;;;;;5096403;28;20189;-89
2022/08/28 08:32:38;;;;;;;15.82;14.15;;;18.40;99.90;;;;;;5103112;28;20204;-89
2022/08/28 08:35:05;;;;;;;16.17;14.35;;;18.30;99.90;;;;;;5100602;28;20192;-88
2022/08/28 08:37:33;;;;;;;17.58;14.55;;;18.30;99.90;;;;;;5102274;28;20192;-89
2022/08/28 08:40:00;;;;;;;15.90;13.57;;;18.20;99.90;;;;;;5095691;28;20208;-89
2022/08/28 08:42:31;;;;;;;17.10;14.60;;;18.30;99.90;;;;;;5097604;28;20202;-90
2022/08/28 08:45:02;;;;;;;14.88;13.20;;;18.30;99.90;;;;;;5091394;28;20239;-90
2022/08/28 08:47:36;;;;;;;16.38;14.65;;;18.20;99.90;;;;;;5101688;28;20581;-89
2022/08/28 08:50:06;;;;;;;17.55;15.50;;;18.30;99.90;;;;;;5096164;28;20832;-89
2022/08/28 08:52:47;;;;;;;17.15;15.35;;;18.30;99.90;;;;;;5099301;28;20285;-90
2022/08/28 08:55:21;;;;;;;18.27;16.30;;;18.20;99.90;;;;;;5105668;28;20202;-89
2022/08/28 08:57:54;;;;;;;24.40;16.35;;;18.10;99.90;;;;;;5101482;28;20268;-90
2022/08/28 09:00:21;;;;;;;20.85;16.85;;;18.10;99.90;;;;;;5105290;28;20485;-90
2022/08/28 09:02:56;;;;;;;17.00;14.88;;;18.20;99.90;;;;;;5103662;28;20196;-90
2022/08/28 09:05:26;;;;;;;18.33;15.15;;;18.20;99.90;;;;;;5103241;28;20185;-90
2022/08/28 09:08:03;;;;;;;16.45;14.70;;;18.20;99.90;;;;;;5103864;28;20227;-93
2022/08/28 09:10:36;;;;;;;17.63;15.15;;;18.20;99.90;;;;;;5102674;28;20680;-90
2022/08/28 09:13:18;;;;;;;19.17;15.93;;;18.20;99.90;;;;;;5101362;27;20192;-94
2022/08/28 09:15:46;;;;;;;19.40;16.13;;;18.20;99.90;;;;;;5101615;28;20727;-88
2022/08/28 09:18:24;;;;;;;18.50;15.45;;;18.20;99.90;;;;;;5108317;28;20263;-91
2022/08/28 09:20:53;;;;;;;17.45;14.00;;;18.10;99.90;;;;;;5100844;28;20235;-87
2022/08/28 09:23:23;;;;;;;17.35;15.50;;;18.10;99.90;;;;;;5102176;28;20192;-88
2022/08/28 09:25:54;;;;;;;16.02;14.38;;;18.10;99.90;;;;;;5103503;28;20192;-88
2022/08/28 09:28:24;;;;;;;18.17;14.30;;;18.10;99.90;;;;;;5112808;28;20219;-89
2022/08/28 09:31:01;;;;;;;18.45;15.55;;;18.20;99.90;;;;;;5112448;28;20555;-89
2022/08/28 09:33:31;;;;;;;16.75;14.55;;;18.20;99.90;;;;;;5101352;28;20204;-91
2022/08/28 09:36:23;;;;;;;15.75;14.05;;;18.10;99.90;;;;;;5104908;28;20579;-91
2022/08/28 09:39:13;;;;;;;16.77;14.70;;;18.20;99.90;;;;;;5110420;28;20561;-92
2022/08/28 09:44:33;;;;;;;16.63;14.65;;;18.20;99.90;;;;;;5101808;28;20227;-91
2022/08/28 09:47:00;;;;;;;17.55;14.60;;;18.30;99.90;;;;;;5106630;28;20184;-90
2022/08/28 09:49:29;;;;;;;14.93;13.38;;;18.20;99.90;;;;;;5106206;28;20224;-91
2022/08/28 09:52:00;;;;;;;18.35;14.15;;;18.20;99.90;;;;;;5114739;27;20214;-88
2022/08/28 09:54:34;;;;;;;18.23;14.70;;;18.10;99.90;;;;;;5109058;27;20196;-90
2022/08/28 09:57:02;;;;;;;16.58;14.68;;;18.10;99.90;;;;;;5105222;27;20192;-90
2022/08/28 09:59:29;;;;;;;18.48;15.60;;;18.10;99.90;;;;;;5102489;28;20231;-90
2022/08/28 10:02:19;;;;;;;17.98;15.65;;;18.10;99.90;;;;;;5096025;28;20197;-90
2022/08/28 10:04:57;;;;;;;17.55;15.27;;;18.10;99.90;;;;;;5102241;27;20192;-90
2022/08/28 10:07:31;;;;;;;18.42;15.40;;;18.10;99.90;;;;;;5100657;28;20200;-89
2022/08/28 10:10:16;;;;;;;17.10;15.30;;;18.10;99.90;;;;;;5107498;27;20777;-89
2022/08/28 10:12:59;;;;;;;16.83;15.02;;;18.00;99.90;;;;;;5101196;28;20193;-89
2022/08/28 10:15:53;;;;;;;19.08;16.15;;;18.10;99.90;;;;;;5098163;28;20652;-90
2022/08/28 10:18:36;;;;;;;17.23;14.63;;;18.10;99.90;;;;;;5106649;28;20291;-90
2022/08/28 10:21:12;;;;;;;20.42;16.23;;;18.10;99.90;;;;;;5105310;28;20207;-90
2022/08/28 10:23:55;;;;;;;19.25;15.48;;;18.10;99.90;;;;;;5101614;28;20263;-90
2022/08/28 10:26:33;;;;;;;18.52;14.82;;;18.10;99.90;;;;;;5098518;28;20226;-89
2022/08/28 10:29:21;;;;;;;18.35;16.33;;;18.10;99.90;;;;;;5109916;28;20219;-90
2022/08/28 10:31:55;;;;;;;19.08;16.33;;;18.10;99.90;;;;;;5112106;28;20202;-90
2022/08/28 10:34:40;;;;;;;20.77;17.70;;;18.10;99.90;;;;;;5105709;28;20202;-90
2022/08/28 10:37:20;;;;;;;27.63;19.60;;;18.10;99.90;;;;;;5107283;28;20200;-89
2022/08/28 10:39:53;;;;;;;21.17;17.65;;;18.00;99.90;;;;;;5105466;28;20203;-90
2022/08/28 10:42:26;;;;;;;19.50;15.90;;;18.10;99.90;;;;;;5099726;28;20203;-90
2022/08/28 10:44:58;;;;;;;22.42;18.05;;;18.10;99.90;;;;;;5098580;28;20695;-89
2022/08/28 10:47:28;;;;;;;23.13;18.58;;;18.10;99.90;;;;;;5093021;28;20515;-89
2022/08/28 10:50:01;;;;;;;24.05;18.98;;;18.20;99.90;;;;;;5104760;28;20223;-90
2022/08/28 10:52:33;;;;;;;24.88;19.05;;;18.20;99.90;;;;;;5103485;28;20202;-89
2022/08/28 10:55:05;;;;;;;25.80;19.63;;;18.20;99.90;;;;;;5105381;28;20611;-90
2022/08/28 10:57:36;;;;;;;25.20;20.10;;;18.20;99.90;;;;;;5101968;28;20647;-89
2022/08/28 11:00:09;;;;;;;21.60;18.60;;;18.20;99.90;;;;;;5101249;28;20294;-89
2022/08/28 11:02:43;;;;;;;24.83;19.23;;;18.30;99.90;;;;;;5098118;28;20226;-89
2022/08/28 11:05:11;;;;;;;20.23;18.02;;;18.30;99.90;;;;;;5096567;28;20203;-89
2022/08/28 11:07:43;;;;;;;22.88;19.10;;;18.40;99.90;;;;;;5091507;28;20211;-89
2022/08/28 11:10:37;;;;;;;25.20;20.33;;;18.50;99.90;;;;;;5099877;28;20234;-91
2022/08/28 11:13:08;;;;;;;24.95;19.80;;;18.50;99.90;;;;;;5098462;28;20200;-91
2022/08/28 11:15:46;;;;;;;24.00;20.40;;;18.50;99.90;;;;;;5093132;28;20886;-90
2022/08/28 11:18:55;;;;;;;28.70;21.15;;;18.60;99.90;;;;;;5098254;28;20574;-89
2022/08/28 11:21:27;;;;;;;26.85;20.88;;;18.70;99.90;;;;;;5033307;28;20204;-91
2022/08/28 11:24:01;;;;;;;24.90;20.15;;;18.70;99.90;;;;;;5085067;27;20745;-90
2022/08/28 11:26:40;;;;;;;24.23;19.38;;;18.90;99.90;;;;;;5093035;28;20249;-90
2022/08/28 11:29:09;;;;;;;25.83;20.77;;;18.90;99.90;;;;;;5094468;28;20220;-91
2022/08/28 11:31:41;;;;;;;27.67;23.27;;;19.00;99.90;;;;;;5096568;28;20555;-87
2022/08/28 11:34:28;;;;;;;28.23;21.38;;;19.10;99.90;;;;;;5098464;28;20204;-87
2022/08/28 11:36:59;;;;;;;25.88;22.35;;;19.20;99.90;;;;;;5098739;28;20192;-87
2022/08/28 11:39:26;;;;;;;30.27;22.25;;;19.20;99.90;;;;;;5094202;28;20215;-88
2022/08/28 11:42:26;;;;;;;23.30;20.80;;;19.30;99.90;;;;;;5102586;28;20206;-88
2022/08/28 11:47:55;;;;;;;25.45;21.63;;;19.50;99.90;;;;;;5098205;28;20208;-88
2022/08/28 11:50:51;;;;;;;22.98;20.17;;;19.70;99.90;;;;;;5100107;28;20610;-88
2022/08/28 11:53:47;;;;;;;24.58;21.30;;;19.70;99.90;;;;;;5104567;28;20204;-87
2022/08/28 11:56:46;;;;;;;23.63;19.73;;;19.70;99.90;;;;;;5106436;28;20207;-86
2022/08/28 11:59:39;;;;;;;206.75;85.45;;;19.90;99.90;;;;;;5099666;28;20196;-87
2022/08/28 12:02:43;;;;;;;322.55;129.40;;;20.00;99.90;;;;;;5053419;28;20596;-87
2022/08/28 12:05:32;;;;;;;99.50;47.83;;;20.10;99.90;;;;;;5051483;28;20296;-87
2022/08/28 12:08:01;;;;;;;241.20;97.18;;;20.20;99.90;;;;;;5051036;28;20208;-87
2022/08/28 12:10:58;;;;;;;243.88;99.03;;;20.30;99.90;;;;;;5052615;28;20224;-87
2022/08/28 12:13:55;;;;;;;208.73;86.13;;;20.50;99.90;;;;;;5050743;28;20202;-88
2022/08/28 12:16:28;;;;;;;188.75;77.55;;;20.60;99.20;;;;;;4970551;28;20217;-90
2022/08/28 12:19:03;;;;;;;169.75;70.05;;;20.70;99.50;;;;;;5035253;28;20197;-87
2022/08/28 12:21:37;;;;;;;93.93;43.13;;;20.90;99.40;;;;;;5053708;28;20194;-88
2022/08/28 12:24:14;;;;;;;106.85;49.97;;;20.80;99.00;;;;;;5054692;28;20292;-88
2022/08/28 12:26:47;;;;;;;95.85;44.45;;;20.80;98.60;;;;;;5048955;28;20205;-87
2022/08/28 12:29:27;;;;;;;41.80;25.23;;;20.70;98.20;;;;;;5052552;28;20381;-87
2022/08/28 12:32:15;;;;;;;76.63;38.72;;;20.80;98.30;;;;;;5055664;28;20206;-87
2022/08/28 12:34:48;;;;;;;62.15;34.60;;;20.80;99.30;;;;;;5052968;28;20201;-86
2022/08/28 12:37:38;;;;;;;54.30;30.95;;;20.90;98.70;;;;;;5056164;28;20213;-87
2022/08/28 12:40:15;;;;;;;47.97;29.08;;;21.00;98.30;;;;;;5096507;28;20211;-86
2022/08/28 12:42:48;;;;;;;56.28;32.00;;;20.90;98.90;;;;;;5101300;28;20201;-87
2022/08/28 12:45:20;;;;;;;48.10;27.27;;;21.00;98.30;;;;;;5103448;28;20220;-87
2022/08/28 12:48:00;;;;;;;55.38;30.35;;;21.10;98.30;;;;;;5102326;28;20192;-88
2022/08/28 12:50:31;;;;;;;19.15;16.90;;;21.00;98.10;;;;;;5110507;28;20216;-87
2022/08/28 12:53:01;;;;;;;18.20;16.30;;;21.10;96.80;;;;;;5100609;28;20196;-85
2022/08/28 12:55:34;;;;;;;31.30;20.70;;;21.10;96.80;;;;;;5108267;28;20224;-83
2022/08/28 12:58:01;;;;;;;33.95;22.67;;;21.00;97.40;;;;;;5116278;27;20200;-85
2022/08/28 13:00:33;;;;;;;30.95;21.10;;;21.20;97.00;;;;;;5109997;28;20196;-84
2022/08/28 13:03:01;;;;;;;25.73;19.80;;;21.50;96.00;;;;;;5107917;27;20284;-86
2022/08/28 13:05:33;;;;;;;29.50;19.50;;;21.60;95.30;;;;;;5114905;28;20188;-85
2022/08/28 13:08:04;;;;;;;27.27;19.33;;;21.70;95.20;;;;;;5109332;28;20211;-86
2022/08/28 13:10:37;;;;;;;26.83;19.17;;;21.80;94.90;;;;;;5112957;28;20224;-85